createdAt,value
2022-11-24T00:00:17.684Z,13.48
2022-11-24T00:02:44.750Z,13.35
2022-11-24T00:05:13.274Z,14.10
2022-11-24T00:07:40.201Z,13.05
2022-11-24T00:10:07.769Z,13.52
2022-11-24T00:12:34.998Z,12.38
2022-11-24T00:15:02.037Z,12.35
2022-11-24T00:17:29.486Z,11.63
2022-11-24T00:19:56.474Z,12.50
2022-11-24T00:22:24.881Z,12.18
2022-11-24T00:24:51.833Z,11.00
2022-11-24T00:27:18.783Z,12.27
2022-11-24T00:29:45.693Z,12.07
2022-11-24T00:32:12.600Z,11.35
2022-11-24T00:34:39.579Z,12.18
2022-11-24T00:37:06.582Z,12.30
2022-11-24T00:39:34.898Z,11.95
2022-11-24T00:42:02.132Z,11.30
2022-11-24T00:44:29.085Z,11.00
2022-11-24T00:46:56.173Z,11.40
2022-11-24T00:49:23.157Z,12.68
2022-11-24T00:51:50.120Z,11.88
2022-11-24T00:54:17.089Z,10.90
2022-11-24T00:56:45.419Z,11.77
2022-11-24T00:59:12.333Z,10.93
2022-11-24T01:01:39.400Z,10.65
2022-11-24T01:04:06.393Z,10.63
2022-11-24T01:06:35.281Z,9.98
2022-11-24T01:09:03.415Z,9.85
2022-11-24T01:11:50.479Z,10.02
2022-11-24T01:14:19.695Z,10.07
2022-11-24T01:16:46.641Z,9.93
2022-11-24T01:19:13.672Z,9.38
2022-11-24T01:21:40.822Z,10.00
2022-11-24T01:24:08.041Z,9.63
2022-11-24T01:26:35.011Z,9.68
2022-11-24T01:29:01.951Z,10.40
2022-11-24T01:31:30.271Z,9.68
2022-11-24T01:33:57.163Z,8.63
2022-11-24T01:36:24.176Z,9.15
2022-11-24T01:38:51.904Z,10.43
2022-11-24T01:41:20.658Z,9.80
2022-11-24T01:43:48.189Z,9.65
2022-11-24T01:46:20.232Z,9.90
2022-11-24T01:48:52.877Z,10.15
2022-11-24T01:51:23.656Z,9.10
2022-11-24T01:53:55.585Z,9.68
2022-11-24T01:56:23.364Z,9.77
2022-11-24T01:58:53.257Z,9.43
2022-11-24T02:01:20.563Z,10.75
2022-11-24T02:03:50.224Z,10.30
2022-11-24T02:06:20.309Z,10.45
2022-11-24T02:08:55.321Z,11.27
2022-11-24T02:11:24.702Z,11.57
2022-11-24T02:13:53.449Z,11.10
2022-11-24T02:16:20.819Z,10.60
2022-11-24T02:18:49.525Z,10.98
2022-11-24T02:21:17.146Z,11.65
2022-11-24T02:23:51.026Z,11.23
2022-11-24T02:26:32.760Z,10.35
2022-11-24T02:28:59.808Z,10.25
2022-11-24T02:31:26.811Z,11.07
2022-11-24T02:33:54.826Z,10.85
2022-11-24T02:36:21.979Z,11.40
2022-11-24T02:38:48.889Z,11.88
2022-11-24T02:41:20.088Z,10.98
2022-11-24T02:43:52.040Z,10.63
2022-11-24T02:46:19.104Z,11.20
2022-11-24T02:48:46.140Z,11.30
2022-11-24T02:51:13.132Z,10.77
2022-11-24T02:53:40.107Z,12.00
2022-11-24T02:56:07.689Z,10.25
2022-11-24T02:58:34.947Z,10.02
2022-11-24T03:01:04.905Z,10.60
2022-11-24T03:03:32.000Z,9.73
2022-11-24T03:05:58.995Z,9.52
2022-11-24T03:08:26.100Z,10.27
2022-11-24T03:10:53.068Z,9.70
2022-11-24T03:13:20.057Z,9.98
2022-11-24T03:15:46.994Z,10.00
2022-11-24T03:18:15.343Z,9.00
2022-11-24T03:20:42.398Z,9.55
2022-11-24T03:23:09.452Z,8.65
2022-11-24T03:25:36.465Z,8.13
2022-11-24T03:28:03.721Z,8.48
2022-11-24T03:30:30.686Z,8.00
2022-11-24T03:32:58.126Z,7.28
2022-11-24T03:35:26.428Z,7.43
2022-11-24T03:37:53.545Z,7.57
2022-11-24T03:40:20.588Z,7.80
2022-11-24T03:42:47.762Z,7.97
2022-11-24T03:45:45.367Z,8.75
2022-11-24T03:48:02.168Z,8.40
2022-11-24T03:50:30.630Z,8.77
2022-11-24T03:52:57.990Z,8.82
2022-11-24T03:55:25.044Z,9.05
2022-11-24T03:57:52.033Z,8.85
2022-11-24T04:00:19.355Z,9.13
2022-11-24T04:02:48.237Z,7.90
2022-11-24T04:05:15.653Z,8.23
2022-11-24T04:07:44.142Z,7.93
2022-11-24T04:10:11.423Z,8.75
2022-11-24T04:12:44.866Z,8.40
2022-11-24T04:15:13.477Z,8.13
2022-11-24T04:17:40.569Z,7.80
2022-11-24T04:20:09.046Z,8.32
2022-11-24T04:22:36.418Z,8.23
2022-11-24T04:25:06.265Z,7.55
2022-11-24T04:27:33.704Z,8.13
2022-11-24T04:30:00.864Z,8.07
2022-11-24T04:32:27.914Z,7.30
2022-11-24T04:34:54.825Z,8.13
2022-11-24T04:37:21.817Z,8.10
2022-11-24T04:39:48.962Z,7.35
2022-11-24T04:42:17.652Z,8.98
2022-11-24T04:44:44.936Z,8.15
2022-11-24T04:47:15.261Z,7.30
2022-11-24T04:49:42.306Z,7.32
2022-11-24T04:52:09.221Z,7.15
2022-11-24T04:54:37.441Z,7.28
2022-11-24T04:57:04.640Z,7.13
2022-11-24T04:59:33.520Z,7.32
2022-11-24T05:02:00.508Z,6.10
2022-11-24T05:04:27.668Z,6.65
2022-11-24T05:06:54.621Z,8.25
2022-11-24T05:09:21.565Z,8.75
2022-11-24T05:11:50.919Z,8.20
2022-11-24T05:14:17.871Z,7.45
2022-11-24T05:16:46.466Z,7.90
2022-11-24T05:19:14.196Z,9.85
2022-11-24T05:21:41.222Z,10.38
2022-11-24T05:24:08.710Z,9.65
2022-11-24T05:26:35.734Z,8.93
2022-11-24T05:29:02.684Z,9.23
2022-11-24T05:31:29.719Z,7.32
2022-11-24T05:33:58.140Z,5.82
2022-11-24T05:36:43.413Z,5.43
2022-11-24T05:39:10.335Z,5.32
2022-11-24T05:41:37.831Z,5.15
2022-11-24T05:44:05.185Z,4.90
2022-11-24T05:46:32.650Z,5.50
2022-11-24T05:49:04.174Z,5.65
2022-11-24T05:51:31.329Z,6.55
2022-11-24T05:53:58.538Z,6.45
2022-11-24T05:56:25.495Z,5.63
2022-11-24T05:58:52.758Z,6.30
2022-11-24T06:01:19.714Z,6.00
2022-11-24T06:03:46.648Z,5.32
2022-11-24T06:06:15.018Z,5.60
2022-11-24T06:08:41.964Z,5.88
2022-11-24T06:11:18.580Z,6.07
2022-11-24T06:13:46.732Z,5.90
2022-11-24T06:16:14.976Z,6.10
2022-11-24T06:18:42.243Z,6.00
2022-11-24T06:21:11.461Z,6.40
2022-11-24T06:23:40.706Z,5.82
2022-11-24T06:26:07.830Z,5.35
2022-11-24T06:28:35.091Z,5.57
2022-11-24T06:31:02.650Z,5.47
2022-11-24T06:33:33.500Z,5.65
2022-11-24T06:36:03.539Z,5.55
2022-11-24T06:38:31.399Z,4.90
2022-11-24T06:41:04.244Z,5.28
2022-11-24T06:43:31.251Z,5.65
2022-11-24T06:45:58.978Z,5.05
2022-11-24T06:48:26.930Z,5.43
2022-11-24T06:50:54.234Z,5.22
2022-11-24T06:53:21.423Z,4.82
2022-11-24T06:55:48.414Z,5.50
2022-11-24T06:58:16.871Z,4.90
2022-11-24T07:00:44.115Z,4.28
2022-11-24T07:03:15.716Z,4.80
2022-11-24T07:05:43.217Z,4.18
2022-11-24T07:08:14.677Z,4.43
2022-11-24T07:10:44.700Z,4.50
2022-11-24T07:13:11.989Z,4.28
2022-11-24T07:15:40.288Z,4.68
2022-11-24T07:18:07.226Z,4.78
2022-11-24T07:20:34.457Z,5.65
2022-11-24T07:23:01.379Z,5.45
2022-11-24T07:25:28.485Z,5.63
2022-11-24T07:27:59.549Z,5.28
2022-11-24T07:30:28.418Z,5.68
2022-11-24T07:33:00.658Z,5.95
2022-11-24T07:35:28.206Z,5.05
2022-11-24T07:37:56.247Z,4.80
2022-11-24T07:40:23.941Z,3.85
2022-11-24T07:42:50.949Z,4.13
2022-11-24T07:45:17.930Z,5.00
2022-11-24T07:47:44.887Z,4.50
2022-11-24T07:50:13.766Z,4.97
2022-11-24T07:52:40.945Z,5.15
2022-11-24T07:55:09.149Z,5.07
2022-11-24T07:57:36.326Z,4.70
2022-11-24T08:00:05.799Z,4.85
2022-11-24T08:02:33.834Z,4.70
2022-11-24T08:05:00.907Z,5.13
2022-11-24T08:07:29.385Z,5.40
2022-11-24T08:09:56.460Z,5.90
2022-11-24T08:12:23.476Z,5.82
2022-11-24T08:14:50.759Z,5.50
2022-11-24T08:17:17.816Z,6.00
2022-11-24T08:19:45.074Z,5.78
2022-11-24T08:22:12.228Z,6.57
2022-11-24T08:24:47.139Z,6.35
2022-11-24T08:27:15.006Z,6.72
2022-11-24T08:29:42.076Z,6.75
2022-11-24T08:32:09.809Z,6.50
2022-11-24T08:34:37.247Z,6.95
2022-11-24T08:37:04.778Z,8.05
2022-11-24T08:39:31.993Z,7.82
2022-11-24T08:42:00.381Z,7.75
2022-11-24T08:44:28.812Z,9.85
2022-11-24T08:46:56.290Z,9.25
2022-11-24T08:49:23.348Z,9.57
2022-11-24T08:51:51.369Z,8.25
2022-11-24T08:54:21.717Z,8.48
2022-11-24T08:56:49.566Z,8.30
2022-11-24T08:59:18.421Z,7.72
2022-11-24T09:01:45.560Z,7.60
2022-11-24T09:04:12.603Z,7.78
2022-11-24T09:06:39.566Z,7.00
2022-11-24T09:09:06.862Z,7.93
2022-11-24T09:11:35.016Z,7.03
2022-11-24T09:14:02.108Z,7.57
2022-11-24T09:16:30.564Z,7.22
2022-11-24T09:18:59.025Z,7.28
2022-11-24T09:21:26.161Z,7.95
2022-11-24T09:23:54.563Z,8.88
2022-11-24T09:26:23.252Z,8.70
2022-11-24T09:28:54.334Z,8.73
2022-11-24T09:31:23.147Z,9.80
2022-11-24T09:33:52.423Z,9.35
2022-11-24T09:36:20.276Z,8.95
2022-11-24T09:38:47.956Z,9.32
2022-11-24T09:41:38.078Z,9.07
2022-11-24T09:44:10.222Z,10.43
2022-11-24T09:46:49.837Z,10.70
2022-11-24T09:49:27.984Z,10.88
2022-11-24T09:51:57.171Z,11.23
2022-11-24T09:54:28.564Z,10.98
2022-11-24T09:56:59.852Z,11.48
2022-11-24T09:59:27.564Z,11.77
2022-11-24T10:01:55.824Z,12.50
2022-11-24T10:04:28.331Z,12.32
2022-11-24T10:07:01.794Z,10.10
2022-11-24T10:09:42.965Z,9.57
2022-11-24T10:12:21.129Z,7.10
2022-11-24T10:15:19.139Z,8.05
2022-11-24T10:17:59.681Z,8.98
2022-11-24T10:20:41.465Z,8.15
2022-11-24T10:23:26.167Z,8.38
2022-11-24T10:25:57.489Z,8.25
2022-11-24T10:28:29.612Z,8.00
2022-11-24T10:31:13.274Z,8.05
2022-11-24T10:33:41.746Z,7.43
2022-11-24T10:36:15.168Z,7.25
2022-11-24T10:38:49.163Z,6.30
2022-11-24T10:41:21.090Z,6.72
2022-11-24T10:43:48.179Z,6.38
2022-11-24T10:46:19.803Z,6.70
2022-11-24T10:48:50.501Z,5.78
2022-11-24T10:51:38.740Z,5.43
2022-11-24T10:54:10.782Z,5.20
2022-11-24T10:56:41.376Z,5.22
2022-11-24T10:59:22.468Z,5.57
2022-11-24T11:01:50.478Z,5.80
2022-11-24T11:04:20.434Z,6.50
2022-11-24T11:06:48.979Z,7.13
2022-11-24T11:09:19.631Z,9.27
2022-11-24T11:11:48.823Z,10.15
2022-11-24T11:14:30.477Z,11.60
2022-11-24T11:16:58.120Z,12.27
2022-11-24T11:19:50.893Z,12.45
2022-11-24T11:22:26.063Z,14.77
2022-11-24T11:25:05.521Z,15.48
2022-11-24T11:27:32.654Z,16.13
2022-11-24T11:36:13.131Z,15.77
2022-11-24T11:38:42.966Z,15.45
2022-11-24T11:41:18.794Z,14.38
2022-11-24T11:43:50.636Z,12.60
2022-11-24T11:46:17.743Z,8.13
2022-11-24T11:48:46.857Z,7.60
2022-11-24T11:51:30.017Z,5.55
2022-11-24T11:54:07.955Z,3.95
2022-11-24T11:56:40.337Z,3.15
2022-11-24T11:59:43.801Z,2.63
2022-11-24T12:02:38.735Z,1.92
2022-11-24T12:05:13.810Z,1.75
2022-11-24T12:07:55.153Z,1.35
2022-11-24T12:10:36.308Z,1.70
2022-11-24T12:13:19.515Z,1.60
2022-11-24T12:15:50.179Z,1.45
2022-11-24T12:18:55.961Z,1.40
2022-11-24T12:21:24.536Z,1.33
2022-11-24T12:24:03.321Z,1.60
2022-11-24T12:26:40.147Z,1.30
2022-11-24T12:29:34.316Z,1.48
2022-11-24T12:32:11.177Z,1.50
2022-11-24T12:34:51.395Z,1.40
2022-11-24T12:37:43.729Z,1.30
2022-11-24T12:40:16.139Z,1.60
2022-11-24T12:42:57.585Z,1.73
2022-11-24T12:45:34.442Z,1.58
2022-11-24T12:48:22.972Z,1.80
2022-11-24T12:50:51.795Z,1.63
2022-11-24T12:53:23.713Z,1.60
2022-11-24T12:55:51.401Z,1.95
2022-11-24T12:58:25.477Z,2.10
2022-11-24T13:01:14.715Z,1.90
2022-11-24T13:03:56.821Z,1.98
2022-11-24T13:06:28.529Z,2.00
2022-11-24T13:08:56.754Z,2.17
2022-11-24T13:11:37.500Z,2.90
2022-11-24T13:14:15.275Z,2.33
2022-11-24T13:17:21.831Z,2.40
2022-11-24T13:19:41.695Z,2.20
2022-11-24T13:22:22.983Z,2.10
2022-11-24T13:25:10.846Z,1.98
2022-11-24T13:27:43.853Z,2.15
2022-11-24T13:30:50.754Z,2.40
2022-11-24T13:33:43.094Z,2.72
2022-11-24T13:36:34.553Z,3.00
2022-11-24T13:39:04.014Z,3.38
2022-11-24T13:42:07.368Z,3.28
2022-11-24T13:44:45.007Z,3.40
2022-11-24T13:47:45.347Z,3.50
2022-11-24T13:50:25.103Z,3.60
2022-11-24T13:53:01.266Z,4.03
2022-11-24T13:55:38.839Z,3.85
2022-11-24T13:58:36.237Z,3.67
2022-11-24T14:01:12.146Z,3.47
2022-11-24T14:03:55.353Z,4.35
2022-11-24T14:06:37.905Z,4.03
2022-11-24T14:09:25.875Z,4.43
2022-11-24T14:12:04.381Z,4.82
2022-11-24T14:14:31.534Z,4.60
2022-11-24T14:17:23.465Z,5.20
2022-11-24T14:19:52.786Z,5.38
2022-11-24T14:22:23.273Z,5.13
2022-11-24T14:24:55.226Z,4.55
2022-11-24T14:27:29.671Z,5.72
2022-11-24T14:29:58.182Z,5.23
2022-11-24T14:32:25.224Z,5.60
2022-11-24T14:34:54.112Z,5.57
2022-11-24T14:37:26.044Z,6.22
2022-11-24T14:39:53.482Z,5.75
2022-11-24T14:42:23.611Z,5.78
2022-11-24T14:44:54.198Z,6.03
2022-11-24T14:47:31.806Z,6.55
2022-11-24T14:50:09.760Z,6.35
2022-11-24T14:52:44.994Z,5.72
2022-11-24T14:55:25.536Z,5.53
2022-11-24T14:57:52.685Z,5.13
2022-11-24T15:00:25.869Z,5.82
2022-11-24T15:02:55.059Z,5.47
2022-11-24T15:05:24.130Z,6.43
2022-11-24T15:08:01.557Z,6.90
2022-11-24T15:10:33.870Z,6.28
2022-11-24T15:13:04.419Z,6.72
2022-11-24T15:15:33.757Z,5.75
2022-11-24T15:18:02.221Z,5.95
2022-11-24T15:20:32.019Z,5.38
2022-11-24T15:23:23.468Z,5.43
2022-11-24T15:25:51.772Z,6.18
2022-11-24T15:28:19.673Z,5.85
2022-11-24T15:30:46.620Z,5.47
2022-11-24T15:33:16.343Z,5.53
2022-11-24T15:35:44.253Z,5.38
2022-11-24T15:38:14.049Z,5.82
2022-11-24T15:40:45.224Z,6.18
2022-11-24T15:43:19.361Z,5.70
2022-11-24T15:45:49.421Z,6.38
2022-11-24T15:48:18.117Z,5.63
2022-11-24T15:50:46.069Z,6.15
2022-11-24T15:53:18.968Z,6.25
2022-11-24T15:55:47.571Z,6.05
2022-11-24T15:58:15.210Z,6.53
2022-11-24T16:00:43.182Z,6.00
2022-11-24T16:03:44.645Z,6.28
2022-11-24T16:05:57.624Z,6.28
2022-11-24T16:08:24.642Z,6.65
2022-11-24T16:10:53.393Z,8.65
2022-11-24T16:13:20.377Z,10.00
2022-11-24T16:15:47.331Z,10.93
2022-11-24T16:18:15.713Z,10.38
2022-11-24T16:20:42.696Z,9.93
2022-11-24T16:23:09.976Z,9.65
2022-11-24T16:25:36.963Z,9.60
2022-11-24T16:28:05.538Z,10.18
2022-11-24T16:30:32.517Z,10.13
2022-11-24T16:32:59.499Z,11.02
2022-11-24T16:35:26.519Z,11.00
2022-11-24T16:37:53.596Z,10.93
2022-11-24T16:40:20.641Z,10.90
2022-11-24T16:42:47.648Z,11.75
2022-11-24T16:45:16.055Z,11.70
2022-11-24T16:47:43.089Z,11.98
2022-11-24T16:50:11.519Z,12.30
2022-11-24T16:52:38.893Z,10.70
2022-11-24T16:55:06.501Z,10.40
2022-11-24T16:57:33.868Z,10.13
2022-11-24T17:00:00.926Z,9.70
2022-11-24T17:02:29.534Z,9.15
2022-11-24T17:04:56.530Z,9.77
2022-11-24T17:07:23.485Z,12.52
2022-11-24T17:09:50.460Z,11.13
2022-11-24T17:12:17.661Z,10.15
2022-11-24T17:15:03.127Z,11.60
2022-11-24T17:17:32.961Z,10.85
2022-11-24T17:19:59.953Z,11.60
2022-11-24T17:22:27.990Z,12.15
2022-11-24T17:24:54.933Z,12.02
2022-11-24T17:27:21.833Z,11.43
2022-11-24T17:29:48.815Z,11.45
2022-11-24T17:32:15.756Z,11.50
2022-11-24T17:34:44.156Z,11.95
2022-11-24T17:37:11.049Z,13.70
2022-11-24T17:39:38.148Z,13.63
2022-11-24T17:42:05.172Z,13.95
2022-11-24T17:44:32.342Z,14.43
2022-11-24T17:47:00.889Z,15.18
2022-11-24T17:49:30.361Z,14.15
2022-11-24T17:51:59.063Z,15.90
2022-11-24T17:57:12.928Z,14.68
2022-11-24T17:59:40.252Z,15.60
2022-11-24T18:02:08.806Z,15.77
2022-11-24T18:04:35.892Z,15.57
2022-11-24T18:07:04.425Z,15.52
2022-11-24T18:09:31.358Z,15.70
2022-11-24T18:11:58.320Z,15.27
2022-11-24T18:14:25.292Z,14.38
2022-11-24T18:16:52.384Z,13.30
2022-11-24T18:19:19.386Z,13.02
2022-11-24T18:21:46.637Z,11.18
2022-11-24T18:24:18.509Z,10.55
2022-11-24T18:26:50.444Z,10.15
2022-11-24T18:29:17.361Z,10.80
2022-11-24T18:31:44.390Z,9.98
2022-11-24T18:34:11.375Z,11.77
2022-11-24T18:36:38.332Z,11.57
2022-11-24T18:39:07.399Z,10.88
2022-11-24T18:41:35.979Z,12.30
2022-11-24T18:44:07.566Z,11.77
2022-11-24T18:46:35.018Z,11.10
2022-11-24T18:49:01.979Z,10.57
2022-11-24T18:51:29.242Z,11.23
2022-11-24T18:53:58.252Z,11.88
2022-11-24T18:56:26.506Z,11.98
2022-11-24T18:58:57.041Z,11.48
2022-11-24T19:01:25.792Z,11.52
2022-11-24T19:03:54.432Z,11.77
2022-11-24T19:06:27.020Z,12.05
2022-11-24T19:08:55.021Z,11.48
2022-11-24T19:11:23.706Z,11.82
2022-11-24T19:13:51.135Z,11.90
2022-11-24T19:16:20.700Z,11.13
2022-11-24T19:18:54.018Z,9.63
2022-11-24T19:21:22.086Z,9.50
2022-11-24T19:23:49.856Z,7.50
2022-11-24T19:26:17.005Z,7.15
2022-11-24T19:28:44.064Z,6.45
2022-11-24T19:31:13.012Z,6.22
2022-11-24T19:33:42.086Z,6.70
2022-11-24T19:36:12.901Z,6.68
2022-11-24T19:38:41.420Z,6.88
2022-11-24T19:41:10.042Z,6.78
2022-11-24T19:43:37.118Z,6.80
2022-11-24T19:46:05.319Z,6.00
2022-11-24T19:48:37.359Z,6.28
2022-11-24T19:51:07.413Z,5.78
2022-11-24T19:53:35.612Z,5.88
2022-11-24T19:56:06.217Z,6.35
2022-11-24T19:58:33.793Z,6.60
2022-11-24T20:01:07.057Z,6.25
2022-11-24T20:03:34.381Z,6.50
2022-11-24T20:06:01.456Z,6.70
2022-11-24T20:08:30.777Z,8.35
2022-11-24T20:11:02.921Z,9.90
2022-11-24T20:13:30.100Z,10.25
2022-11-24T20:16:01.822Z,11.95
2022-11-24T20:18:30.537Z,10.35
2022-11-24T20:21:02.305Z,10.88
2022-11-24T20:23:30.686Z,10.40
2022-11-24T20:26:04.216Z,10.18
2022-11-24T20:28:31.539Z,10.23
2022-11-24T20:31:01.874Z,11.15
2022-11-24T20:33:29.146Z,9.57
2022-11-24T20:35:56.461Z,10.15
2022-11-24T20:38:23.574Z,10.35
2022-11-24T20:40:53.278Z,10.02
2022-11-24T20:43:20.243Z,9.55
2022-11-24T20:45:47.241Z,9.13
2022-11-24T20:48:14.437Z,8.05
2022-11-24T20:50:41.405Z,8.38
2022-11-24T20:53:08.415Z,8.85
2022-11-24T20:55:35.441Z,8.23
2022-11-24T20:58:03.765Z,8.38
2022-11-24T21:00:31.000Z,7.72
2022-11-24T21:02:58.582Z,8.23
2022-11-24T21:05:25.644Z,8.35
2022-11-24T21:07:52.604Z,8.75
2022-11-24T21:10:19.599Z,7.95
2022-11-24T21:12:46.579Z,7.45
2022-11-24T21:15:14.910Z,8.43
2022-11-24T21:17:42.041Z,8.57
2022-11-24T21:20:10.604Z,8.65
2022-11-24T21:22:39.047Z,8.77
2022-11-24T21:25:06.697Z,10.30
2022-11-24T21:27:33.789Z,10.35
2022-11-24T21:30:00.726Z,10.10
2022-11-24T21:32:29.473Z,9.95
2022-11-24T21:34:56.546Z,10.43
2022-11-24T21:37:23.543Z,9.07
2022-11-24T21:39:50.553Z,8.85
2022-11-24T21:42:17.562Z,6.55
2022-11-24T21:44:44.612Z,6.88
2022-11-24T21:47:11.580Z,4.93
2022-11-24T21:49:39.953Z,5.18
2022-11-24T21:52:06.882Z,4.30
2022-11-24T21:54:34.238Z,4.10
2022-11-24T21:57:01.415Z,3.90
2022-11-24T21:59:28.409Z,4.40
2022-11-24T22:01:56.232Z,4.25
2022-11-24T22:04:23.221Z,4.53
2022-11-24T22:06:52.638Z,3.90
2022-11-24T22:09:19.625Z,4.30
2022-11-24T22:11:49.327Z,4.07
2022-11-24T22:14:16.456Z,4.00
2022-11-24T22:16:43.547Z,4.10
2022-11-24T22:19:10.513Z,3.80
2022-11-24T22:21:37.438Z,3.58
2022-11-24T22:24:06.455Z,3.70
2022-11-24T22:26:33.401Z,4.18
2022-11-24T22:29:00.574Z,4.05
2022-11-24T22:31:28.851Z,4.20
2022-11-24T22:33:57.316Z,3.40
2022-11-24T22:36:26.008Z,3.97
2022-11-24T22:38:53.952Z,3.97
2022-11-24T22:41:22.604Z,3.60
2022-11-24T22:43:49.881Z,3.65
2022-11-24T22:46:18.061Z,3.95
2022-11-24T22:48:46.562Z,3.63
2022-11-24T22:51:14.991Z,3.97
2022-11-24T22:53:42.564Z,3.90
2022-11-24T22:56:11.198Z,4.10
2022-11-24T22:58:40.120Z,4.13
2022-11-24T23:01:08.517Z,4.32
2022-11-24T23:03:36.438Z,4.15
2022-11-24T23:06:05.336Z,4.53
2022-11-24T23:08:33.621Z,4.43
2022-11-24T23:11:01.228Z,4.15
2022-11-24T23:13:28.428Z,4.40
2022-11-24T23:16:01.703Z,4.03
2022-11-24T23:18:28.854Z,4.25
2022-11-24T23:20:56.165Z,4.93
2022-11-24T23:23:23.079Z,4.25
2022-11-24T23:25:50.004Z,4.20
2022-11-24T23:28:17.056Z,4.25
2022-11-24T23:30:44.028Z,4.30
2022-11-24T23:33:12.400Z,4.53
2022-11-24T23:35:39.436Z,4.05
2022-11-24T23:38:07.772Z,3.75
2022-11-24T23:40:35.140Z,3.90
2022-11-24T23:43:02.100Z,3.40
2022-11-24T23:45:29.106Z,3.78
2022-11-24T23:47:56.068Z,3.35
2022-11-24T23:50:24.388Z,3.40
2022-11-24T23:52:51.331Z,3.70
2022-11-24T23:55:19.289Z,3.65
2022-11-24T23:57:46.433Z,3.63
